Time;durP1;ratioP1;P1;durP2;ratioP2;P2;SDS_P1;SDS_P2;PMS_P1;PMS_P2;Temp;Humidity;BMP_temperature;BMP_pressure;BME280_temperature;BME280_humidity;BME280_pressure;Samples;Min_cycle;Max_cycle;Signal;HPM_P1;HPM_P2
2020/12/15 00:14:16;;;;;;;4.73;4.40;;;10.00;62.90;;;;;;4899798;29;20557;-86
2020/12/15 00:16:45;;;;;;;5.40;4.90;;;10.00;62.60;;;;;;4918238;29;20455;-85
2020/12/15 00:19:12;;;;;;;6.10;5.50;;;10.00;61.80;;;;;;4920059;29;20461;-83
2020/12/15 00:21:42;;;;;;;7.93;6.90;;;10.00;61.70;;;;;;4918677;29;20526;-83
2020/12/15 00:24:09;;;;;;;8.27;5.80;;;10.00;61.80;;;;;;4919944;29;20511;-83
2020/12/15 00:27:02;;;;;;;9.47;5.70;;;10.00;61.60;;;;;;4919250;29;20463;-85
2020/12/15 00:29:54;;;;;;;7.80;5.10;;;10.10;61.70;;;;;;4918981;29;20866;-86
2020/12/15 00:36:26;;;;;;;5.77;5.17;;;10.00;61.60;;;;;;4876597;29;20494;-86
2020/12/15 00:38:53;;;;;;;5.70;5.10;;;10.00;61.40;;;;;;4893756;29;20502;-84
2020/12/15 00:41:22;;;;;;;6.37;5.80;;;10.00;61.40;;;;;;4898617;29;20466;-83
2020/12/15 00:43:56;;;;;;;6.20;5.60;;;10.00;61.40;;;;;;4911612;29;20470;-83
2020/12/15 00:46:27;;;;;;;5.27;4.80;;;10.10;61.30;;;;;;4919363;29;20455;-83
2020/12/15 00:48:57;;;;;;;6.13;5.57;;;10.10;61.20;;;;;;4918089;29;20454;-83
2020/12/15 00:51:31;;;;;;;8.37;6.60;;;10.10;61.20;;;;;;4919067;29;20473;-83
2020/12/15 02:17:13;;;;;;;5.30;4.87;;;10.50;59.10;;;;;;4772580;30;20585;-85
2020/12/15 02:20:09;;;;;;;5.50;5.00;;;10.50;59.40;;;;;;4748679;30;20474;-86
2020/12/15 02:29:14;;;;;;;5.30;4.90;;;10.50;60.00;;;;;;4788521;29;20554;-83
2020/12/15 02:31:57;;;;;;;4.50;4.10;;;10.50;60.00;;;;;;4840925;29;21045;-84
2020/12/15 02:34:34;;;;;;;5.50;4.50;;;10.50;59.90;;;;;;4851607;29;20484;-83
2020/12/15 02:37:56;;;;;;;5.53;4.70;;;10.50;59.90;;;;;;4897927;29;20473;-84
2020/12/15 02:40:26;;;;;;;4.97;4.57;;;10.60;59.90;;;;;;4877634;29;20520;-83
2020/12/15 02:43:08;;;;;;;4.57;4.17;;;10.50;60.00;;;;;;4910145;29;20460;-83
2020/12/15 02:45:45;;;;;;;5.37;4.97;;;10.50;60.20;;;;;;4918222;29;21003;-82
2020/12/15 02:48:54;;;;;;;4.77;4.47;;;10.50;60.40;;;;;;4906971;29;20463;-84
2020/12/15 02:51:23;;;;;;;4.93;4.43;;;10.50;60.60;;;;;;4848452;29;20478;-82
2020/12/15 03:15:17;;;;;;;;;;;;;;;;;;;;;
2020/12/15 03:20:47;;;;;;;4.67;4.27;;;10.40;61.20;;;;;;4784137;29;20450;-84
2020/12/15 03:23:14;;;;;;;6.43;4.40;;;10.30;61.30;;;;;;4804175;29;20461;-84
2020/12/15 04:57:38;;;;;;;4.80;4.27;;;10.70;57.70;;;;;;4873490;29;20965;-83
2020/12/15 05:03:36;;;;;;;5.70;5.17;;;10.60;57.80;;;;;;4726399;30;21023;-87
2020/12/15 05:06:19;;;;;;;4.80;4.40;;;10.60;57.90;;;;;;4818151;29;20470;-84
2020/12/15 05:16:12;;;;;;;7.43;6.73;;;10.60;57.70;;;;;;4866116;29;20820;-87
2020/12/15 05:19:15;;;;;;;6.87;4.37;;;10.70;58.10;;;;;;4815506;29;20465;-86
2020/12/15 05:22:31;;;;;;;4.73;4.20;;;10.70;58.50;;;;;;4752381;30;20477;-87
2020/12/15 05:28:33;;;;;;;7.23;4.60;;;10.70;58.90;;;;;;4744882;30;20454;-86
2020/12/15 05:41:15;;;;;;;4.83;4.43;;;10.70;59.60;;;;;;4746996;30;20943;-85
2020/12/15 05:43:44;;;;;;;5.43;4.90;;;10.70;59.90;;;;;;4750834;30;20469;-83
2020/12/15 05:46:12;;;;;;;5.60;5.10;;;10.70;60.00;;;;;;4807214;29;20469;-83
2020/12/15 05:49:13;;;;;;;5.23;4.70;;;10.70;60.10;;;;;;4820919;29;20452;-85
2020/12/15 05:51:44;;;;;;;4.60;4.20;;;10.70;60.30;;;;;;4814393;29;20496;-83
2020/12/15 05:54:36;;;;;;;;;;;;;;;;;;;;;
2020/12/15 06:03:40;;;;;;;4.60;4.20;;;10.80;61.00;;;;;;4831639;29;20956;-83
2020/12/15 06:06:22;;;;;;;7.80;4.77;;;10.80;61.20;;;;;;4874834;29;20553;-84
2020/12/15 06:09:23;;;;;;;4.27;3.87;;;10.80;61.10;;;;;;4876057;29;20471;-84
2020/12/15 06:11:52;;;;;;;6.40;5.80;;;10.80;61.20;;;;;;4868275;29;20530;-82
2020/12/15 06:18:16;;;;;;;4.67;4.27;;;10.80;61.30;;;;;;4813100;29;20803;-87
2020/12/15 06:21:07;;;;;;;5.40;4.60;;;10.80;61.50;;;;;;4805756;29;20458;-84
2020/12/15 06:23:34;;;;;;;4.80;4.10;;;10.90;61.60;;;;;;4814228;29;20509;-80
2020/12/15 06:26:01;;;;;;;4.57;4.17;;;10.90;61.60;;;;;;4810533;29;20967;-83
2020/12/15 06:28:42;;;;;;;4.60;4.20;;;10.90;61.50;;;;;;4853354;29;20524;-84
2020/12/15 06:31:20;;;;;;;8.40;4.60;;;10.90;61.50;;;;;;4864600;29;20464;-83
2020/12/15 06:33:55;;;;;;;9.90;5.17;;;10.90;61.50;;;;;;4876584;29;21051;-85
2020/12/15 06:36:26;;;;;;;5.33;4.93;;;10.90;61.40;;;;;;4873847;29;20558;-82
2020/12/15 06:38:53;;;;;;;4.47;4.00;;;11.00;61.10;;;;;;4871834;29;20475;-81
2020/12/15 06:41:40;;;;;;;7.30;4.57;;;11.00;60.70;;;;;;4870213;29;20476;-83
2020/12/15 06:44:07;;;;;;;5.90;3.90;;;11.00;60.70;;;;;;4878486;29;20455;-84
2020/12/15 06:46:35;;;;;;;5.00;4.20;;;10.90;60.80;;;;;;4872513;29;20492;-80
2020/12/15 06:49:10;;;;;;;5.70;5.20;;;10.90;60.80;;;;;;4871455;29;20466;-80
2020/12/15 06:51:36;;;;;;;5.53;4.63;;;10.90;60.40;;;;;;4874885;29;20470;-81
2020/12/15 06:54:05;;;;;;;7.70;5.40;;;10.90;60.10;;;;;;4870136;29;21019;-78
2020/12/15 06:56:31;;;;;;;4.87;4.37;;;10.90;60.00;;;;;;4872495;29;20554;-79
2020/12/15 06:59:03;;;;;;;6.80;5.40;;;10.90;60.00;;;;;;4868556;29;20465;-79
2020/12/15 07:01:30;;;;;;;7.10;5.13;;;10.90;59.40;;;;;;4874464;29;20464;-80
2020/12/15 07:03:57;;;;;;;5.10;4.53;;;10.80;59.70;;;;;;4879522;29;20456;-78
2020/12/15 07:06:31;;;;;;;6.43;5.53;;;10.80;59.90;;;;;;4864367;29;20831;-82
2020/12/15 07:08:59;;;;;;;6.77;5.07;;;10.90;60.20;;;;;;4863825;29;20494;-80
2020/12/15 07:11:26;;;;;;;6.53;5.33;;;10.90;60.20;;;;;;4870797;29;20463;-79
2020/12/15 07:13:57;;;;;;;6.63;6.00;;;10.90;60.00;;;;;;4875589;29;21034;-79
2020/12/15 07:16:24;;;;;;;5.30;4.80;;;10.90;59.80;;;;;;4873856;29;20814;-79
2020/12/15 07:18:51;;;;;;;6.37;5.63;;;10.90;59.80;;;;;;4874734;29;20496;-81
2020/12/15 07:21:18;;;;;;;7.60;6.00;;;11.00;59.90;;;;;;4864984;29;20553;-82
2020/12/15 07:23:46;;;;;;;6.77;6.03;;;11.00;59.90;;;;;;4871712;29;20458;-82
2020/12/15 07:26:15;;;;;;;7.40;5.50;;;11.00;59.90;;;;;;4877702;29;20479;-81
2020/12/15 07:28:43;;;;;;;6.13;5.10;;;11.00;59.80;;;;;;4874071;29;20471;-83
2020/12/15 07:31:10;;;;;;;5.67;4.80;;;11.10;60.00;;;;;;4871636;29;20557;-83
2020/12/15 07:33:38;;;;;;;6.33;5.73;;;11.10;60.10;;;;;;4878407;29;20488;-82
2020/12/15 07:36:13;;;;;;;6.10;5.60;;;11.10;60.10;;;;;;4878698;29;20458;-82
2020/12/15 07:38:40;;;;;;;5.33;4.87;;;11.10;60.10;;;;;;4879012;29;20797;-82
2020/12/15 07:41:14;;;;;;;5.40;4.90;;;11.10;60.00;;;;;;4878617;29;20455;-82
2020/12/15 07:43:51;;;;;;;6.67;5.70;;;11.20;60.20;;;;;;4878322;29;20503;-82
2020/12/15 07:46:18;;;;;;;9.00;5.90;;;11.20;60.20;;;;;;4879057;29;20467;-82
2020/12/15 07:48:46;;;;;;;6.70;5.83;;;11.10;60.10;;;;;;4878722;29;20476;-82
2020/12/15 07:51:12;;;;;;;7.37;6.00;;;11.10;60.30;;;;;;4878756;29;20832;-81
2020/12/15 07:53:48;;;;;;;7.13;5.57;;;11.10;60.20;;;;;;4878370;29;20847;-82
2020/12/15 07:56:17;;;;;;;9.80;6.63;;;11.10;60.10;;;;;;4877487;29;20524;-82
2020/12/15 07:58:47;;;;;;;8.00;5.70;;;11.10;60.00;;;;;;4878710;29;20508;-82
2020/12/15 08:01:20;;;;;;;8.73;5.90;;;11.10;60.30;;;;;;4878927;29;20814;-81
2020/12/15 08:03:46;;;;;;;8.23;5.80;;;11.20;60.80;;;;;;4878935;29;20479;-82
2020/12/15 08:06:13;;;;;;;6.80;5.77;;;11.10;60.90;;;;;;4878895;29;20527;-82
2020/12/15 08:08:41;;;;;;;6.20;5.67;;;11.20;61.30;;;;;;4878496;29;20460;-82
2020/12/15 08:11:18;;;;;;;8.73;6.97;;;11.20;61.50;;;;;;4878613;29;20501;-82
2020/12/15 08:13:47;;;;;;;8.10;6.57;;;11.20;61.30;;;;;;4878878;29;20578;-82
2020/12/15 08:16:14;;;;;;;6.60;6.00;;;11.20;60.90;;;;;;4878541;29;20490;-82
2020/12/15 08:18:42;;;;;;;7.20;6.50;;;11.30;60.80;;;;;;4878759;29;20480;-82
2020/12/15 08:21:13;;;;;;;6.80;6.20;;;11.30;60.60;;;;;;4877061;29;20649;-82
2020/12/15 08:23:46;;;;;;;7.70;5.80;;;11.30;60.40;;;;;;4878865;29;20475;-82
2020/12/15 08:26:14;;;;;;;7.37;5.60;;;11.30;60.20;;;;;;4878977;29;20906;-83
2020/12/15 08:28:41;;;;;;;7.47;5.70;;;11.40;61.00;;;;;;4882604;29;20465;-82
2020/12/15 08:31:10;;;;;;;6.37;5.57;;;11.40;60.20;;;;;;4882479;29;20454;-82
2020/12/15 08:33:37;;;;;;;9.90;6.20;;;11.40;60.30;;;;;;4882370;29;21003;-82
2020/12/15 08:36:04;;;;;;;6.47;5.87;;;11.40;60.40;;;;;;4882359;29;20455;-82
2020/12/15 08:38:31;;;;;;;9.30;5.50;;;11.40;60.40;;;;;;4882072;29;20971;-82
2020/12/15 08:41:00;;;;;;;8.33;6.03;;;11.40;60.20;;;;;;4873309;29;20452;-82
2020/12/15 08:43:27;;;;;;;8.67;5.83;;;11.40;60.30;;;;;;4881441;29;20609;-82
2020/12/15 08:45:55;;;;;;;6.60;5.43;;;11.40;60.30;;;;;;4881502;29;20502;-82
2020/12/15 08:48:24;;;;;;;6.97;6.20;;;11.40;60.30;;;;;;4880377;29;20464;-82
2020/12/15 08:50:51;;;;;;;6.80;5.30;;;11.40;60.10;;;;;;4882103;29;20472;-83
2020/12/15 08:53:18;;;;;;;6.37;5.77;;;11.30;60.20;;;;;;4882112;29;20464;-82
2020/12/15 08:55:47;;;;;;;6.13;5.10;;;11.40;60.20;;;;;;4881373;29;20492;-82
2020/12/15 08:58:14;;;;;;;7.27;6.40;;;11.40;60.10;;;;;;4881986;29;20921;-82
2020/12/15 09:00:43;;;;;;;5.90;5.40;;;11.40;60.00;;;;;;4881903;29;20460;-82
2020/12/15 09:03:11;;;;;;;6.23;5.30;;;11.50;60.10;;;;;;4881952;29;20847;-82
2020/12/15 09:05:53;;;;;;;5.63;4.33;;;11.50;60.30;;;;;;4881753;29;20830;-82
2020/12/15 09:08:20;;;;;;;6.40;5.13;;;11.50;60.50;;;;;;4881822;29;20477;-83
2020/12/15 09:10:48;;;;;;;5.90;5.50;;;11.50;60.40;;;;;;4881030;29;20487;-82
2020/12/15 09:13:14;;;;;;;5.87;4.50;;;11.60;60.50;;;;;;4881718;29;20503;-82
2020/12/15 09:15:48;;;;;;;5.90;5.30;;;11.60;60.10;;;;;;4879638;29;20499;-81
2020/12/15 09:18:16;;;;;;;6.33;5.00;;;11.60;59.90;;;;;;4881431;29;20452;-82
2020/12/15 09:20:43;;;;;;;6.57;5.47;;;11.60;59.70;;;;;;4881573;29;20497;-82
2020/12/15 09:23:10;;;;;;;7.17;6.03;;;11.60;59.60;;;;;;4881241;29;20476;-82
2020/12/15 09:25:37;;;;;;;7.67;5.87;;;11.60;59.50;;;;;;4881154;29;20467;-82
2020/12/15 09:28:17;;;;;;;6.30;5.70;;;11.70;59.70;;;;;;4880976;29;20470;-82
2020/12/15 09:30:43;;;;;;;7.53;6.20;;;11.80;59.70;;;;;;4880823;29;20491;-82
2020/12/15 09:33:10;;;;;;;6.40;5.80;;;11.80;59.50;;;;;;4881005;29;20475;-82
2020/12/15 09:35:38;;;;;;;6.10;5.53;;;11.80;59.30;;;;;;4881001;29;20902;-82
2020/12/15 09:38:04;;;;;;;7.10;5.67;;;11.90;59.30;;;;;;4879870;29;20464;-82
2020/12/15 09:40:31;;;;;;;8.53;6.00;;;11.90;59.20;;;;;;4879126;29;20468;-82
2020/12/15 09:42:58;;;;;;;5.97;5.47;;;11.90;59.20;;;;;;4881221;29;20499;-82
2020/12/15 09:45:26;;;;;;;5.73;5.20;;;11.90;59.20;;;;;;4880784;29;20449;-82
2020/12/15 09:47:53;;;;;;;6.80;5.30;;;11.90;58.90;;;;;;4880952;29;20492;-82
2020/12/15 09:50:20;;;;;;;6.03;5.43;;;12.00;58.70;;;;;;4880846;29;20455;-80
2020/12/15 09:52:47;;;;;;;8.10;6.70;;;12.00;58.70;;;;;;4880861;29;20468;-80
2020/12/15 09:55:14;;;;;;;6.73;6.03;;;12.00;58.70;;;;;;4880331;29;20578;-81
2020/12/15 09:57:41;;;;;;;6.40;5.80;;;12.00;58.50;;;;;;4880534;29;20939;-81
2020/12/15 10:00:07;;;;;;;6.30;5.30;;;12.00;58.50;;;;;;4880091;29;20460;-81
2020/12/15 10:02:34;;;;;;;6.30;5.80;;;12.10;58.80;;;;;;4880805;29;20460;-81
2020/12/15 10:05:00;;;;;;;6.10;5.50;;;12.10;58.80;;;;;;4881105;29;21067;-80
2020/12/15 10:07:27;;;;;;;7.13;5.83;;;12.10;58.70;;;;;;4879018;29;20472;-81
2020/12/15 10:09:57;;;;;;;8.20;5.80;;;12.10;58.60;;;;;;4880035;29;20499;-81
2020/12/15 10:12:24;;;;;;;8.40;6.63;;;12.20;58.80;;;;;;4880209;29;20468;-81
2020/12/15 10:14:50;;;;;;;7.23;6.53;;;12.20;58.70;;;;;;4880406;29;20905;-82
2020/12/15 10:17:17;;;;;;;6.47;5.87;;;12.10;58.70;;;;;;4880266;29;20452;-83
2020/12/15 10:19:44;;;;;;;7.20;6.60;;;12.10;58.80;;;;;;4880441;29;20464;-82
2020/12/15 10:22:10;;;;;;;6.43;4.90;;;12.20;59.00;;;;;;4879953;29;20463;-81
2020/12/15 10:24:37;;;;;;;6.73;6.23;;;12.20;59.00;;;;;;4879939;29;20456;-83
2020/12/15 10:27:04;;;;;;;7.57;5.83;;;12.30;59.00;;;;;;4880057;29;20452;-81
2020/12/15 10:29:31;;;;;;;6.60;6.07;;;12.30;58.90;;;;;;4880354;29;20467;-80
2020/12/15 10:31:58;;;;;;;10.63;6.60;;;12.40;58.70;;;;;;4880206;29;20452;-81
2020/12/15 10:34:24;;;;;;;6.67;5.93;;;12.50;58.30;;;;;;4878456;29;20491;-81
2020/12/15 10:36:51;;;;;;;11.90;6.97;;;12.50;58.20;;;;;;4879470;29;20828;-82
2020/12/15 10:39:18;;;;;;;6.80;6.10;;;12.60;58.20;;;;;;4880040;29;20464;-82
2020/12/15 10:41:44;;;;;;;8.17;7.50;;;12.60;58.10;;;;;;4879215;29;20460;-82
2020/12/15 10:44:14;;;;;;;7.73;6.97;;;12.70;58.00;;;;;;4879506;29;20927;-82
2020/12/15 10:46:44;;;;;;;6.27;5.77;;;12.70;58.10;;;;;;4879703;29;20460;-82
2020/12/15 10:49:11;;;;;;;7.90;6.47;;;12.70;58.10;;;;;;4879527;29;20464;-81
2020/12/15 10:51:38;;;;;;;9.13;7.57;;;12.70;58.00;;;;;;4879532;29;20463;-82
2020/12/15 10:54:05;;;;;;;7.07;6.03;;;12.70;58.10;;;;;;4879829;29;20927;-81
2020/12/15 10:56:31;;;;;;;8.30;5.93;;;12.60;58.20;;;;;;4879291;29;20461;-82
2020/12/15 10:58:58;;;;;;;7.20;6.47;;;12.60;58.40;;;;;;4879732;29;20812;-82
2020/12/15 11:01:28;;;;;;;7.90;6.30;;;12.60;58.50;;;;;;4877808;29;20458;-82
2020/12/15 11:03:55;;;;;;;8.20;6.47;;;12.60;58.40;;;;;;4879531;29;20539;-82
2020/12/15 11:06:24;;;;;;;6.67;6.00;;;12.60;58.50;;;;;;4879689;29;20467;-80
2020/12/15 11:08:51;;;;;;;7.77;6.40;;;12.60;58.40;;;;;;4878935;29;20977;-83
2020/12/15 11:11:17;;;;;;;7.40;5.80;;;12.60;58.60;;;;;;4879583;29;20468;-81
2020/12/15 11:13:44;;;;;;;7.53;6.10;;;12.70;58.70;;;;;;4879396;29;20829;-81
2020/12/15 11:16:10;;;;;;;8.73;6.93;;;12.70;58.90;;;;;;4879524;29;20488;-83
2020/12/15 11:18:38;;;;;;;6.60;6.00;;;12.70;59.10;;;;;;4879245;29;21006;-82
2020/12/15 11:21:04;;;;;;;6.53;5.90;;;12.70;59.40;;;;;;4879546;29;20461;-80
2020/12/15 11:23:31;;;;;;;7.77;6.60;;;12.70;59.60;;;;;;4878698;29;20461;-82
2020/12/15 11:25:58;;;;;;;8.67;6.13;;;12.70;59.80;;;;;;4877726;29;20498;-81
2020/12/15 11:28:24;;;;;;;12.23;6.10;;;12.70;60.00;;;;;;4878841;29;20453;-81
2020/12/15 11:30:53;;;;;;;8.53;6.63;;;12.70;60.30;;;;;;4879220;29;20463;-80
2020/12/15 11:33:19;;;;;;;7.00;6.30;;;12.80;60.60;;;;;;4878733;29;20969;-80
2020/12/15 11:35:48;;;;;;;11.30;6.93;;;12.80;60.70;;;;;;4879005;29;20552;-82
2020/12/15 11:38:17;;;;;;;8.00;6.37;;;12.80;60.80;;;;;;4879266;29;20988;-80
2020/12/15 11:40:44;;;;;;;7.13;6.40;;;12.80;61.00;;;;;;4878825;29;20950;-81
2020/12/15 11:43:11;;;;;;;6.60;6.00;;;12.80;61.20;;;;;;4878968;29;20456;-81
2020/12/15 11:45:37;;;;;;;10.63;6.70;;;12.90;61.30;;;;;;4879159;29;20461;-81
2020/12/15 11:48:04;;;;;;;6.10;5.30;;;12.90;61.40;;;;;;4878787;29;21013;-80
2020/12/15 11:50:30;;;;;;;7.50;6.20;;;12.90;61.40;;;;;;4878990;29;20473;-81
2020/12/15 11:53:03;;;;;;;6.47;5.80;;;12.90;61.60;;;;;;4877202;29;20460;-82
2020/12/15 11:55:30;;;;;;;6.47;5.97;;;12.90;61.80;;;;;;4878847;29;20494;-82
2020/12/15 11:57:57;;;;;;;6.87;6.20;;;12.90;61.90;;;;;;4878675;29;20476;-82
2020/12/15 12:00:24;;;;;;;7.33;6.07;;;13.00;62.00;;;;;;4878381;29;20486;-81
2020/12/15 12:02:50;;;;;;;7.37;5.73;;;13.00;62.00;;;;;;4877607;29;20830;-82
2020/12/15 12:05:19;;;;;;;8.87;7.20;;;13.10;61.90;;;;;;4877972;29;20456;-81
2020/12/15 12:07:48;;;;;;;6.00;5.50;;;13.20;61.90;;;;;;4878582;29;20461;-82
2020/12/15 12:10:16;;;;;;;6.27;5.77;;;13.30;62.00;;;;;;4878525;29;20480;-81
2020/12/15 12:12:43;;;;;;;7.50;6.20;;;13.30;62.10;;;;;;4878001;29;20509;-81
2020/12/15 12:15:09;;;;;;;5.97;5.37;;;13.40;62.10;;;;;;4878355;29;20520;-81
2020/12/15 12:17:36;;;;;;;7.30;5.87;;;13.40;62.10;;;;;;4878399;29;20467;-81
2020/12/15 12:20:03;;;;;;;9.50;7.17;;;13.50;62.20;;;;;;4876737;29;20452;-82
2020/12/15 12:22:30;;;;;;;10.07;6.70;;;13.60;62.20;;;;;;4878647;29;20477;-79
2020/12/15 12:24:56;;;;;;;5.73;4.50;;;13.60;62.20;;;;;;4878009;29;20465;-82
2020/12/15 12:27:25;;;;;;;8.27;6.50;;;13.60;62.20;;;;;;4877687;29;21006;-82
2020/12/15 12:29:52;;;;;;;10.73;6.37;;;13.70;62.30;;;;;;4876335;29;20464;-82
2020/12/15 12:32:18;;;;;;;8.43;7.10;;;13.70;62.30;;;;;;4874858;29;20453;-77
2020/12/15 12:34:45;;;;;;;10.13;7.70;;;13.70;62.50;;;;;;4878152;29;20501;-81
2020/12/15 12:37:12;;;;;;;11.60;7.90;;;13.70;62.80;;;;;;4877366;29;20476;-78
2020/12/15 12:39:38;;;;;;;7.03;5.87;;;13.70;63.20;;;;;;4877434;29;20472;-80
2020/12/15 12:42:05;;;;;;;8.33;6.50;;;13.80;63.40;;;;;;4871944;29;20458;-81
2020/12/15 12:44:34;;;;;;;6.23;5.47;;;13.70;63.20;;;;;;4861492;29;20461;-80
2020/12/15 12:47:00;;;;;;;8.23;5.80;;;13.60;63.00;;;;;;4866553;29;20468;-78
2020/12/15 12:49:29;;;;;;;10.37;6.30;;;13.50;62.40;;;;;;4867966;29;20828;-79
2020/12/15 12:51:57;;;;;;;10.53;6.87;;;13.40;62.70;;;;;;4869396;29;20457;-81
2020/12/15 12:54:24;;;;;;;8.23;7.53;;;13.20;63.10;;;;;;4878243;29;20528;-80
2020/12/15 12:56:52;;;;;;;7.97;7.13;;;13.10;63.50;;;;;;4877403;29;20463;-82
2020/12/15 12:59:18;;;;;;;8.83;7.03;;;13.00;63.60;;;;;;4877607;29;20879;-81
2020/12/15 13:01:46;;;;;;;9.43;8.27;;;13.00;63.90;;;;;;4870832;29;20453;-80
2020/12/15 13:04:12;;;;;;;21.43;16.33;;;13.10;64.20;;;;;;4859384;29;20906;-81
2020/12/15 13:06:43;;;;;;;9.03;8.10;;;13.20;64.20;;;;;;4869456;29;21982;-83
2020/12/15 13:09:09;;;;;;;10.37;7.30;;;13.30;63.80;;;;;;4877880;29;20480;-82
2020/12/15 13:11:45;;;;;;;9.80;7.30;;;13.50;63.80;;;;;;4867973;29;20466;-81
2020/12/15 13:14:53;;;;;;;10.77;8.60;;;13.60;63.60;;;;;;4870790;29;20571;-82
2020/12/15 13:17:24;;;;;;;9.30;8.20;;;13.60;63.40;;;;;;4866905;29;20507;-82
2020/12/15 13:19:51;;;;;;;7.60;6.97;;;13.70;63.40;;;;;;4876156;29;20790;-82
2020/12/15 13:22:24;;;;;;;9.90;7.03;;;13.70;63.20;;;;;;4870030;29;20465;-83
2020/12/15 13:24:51;;;;;;;8.73;7.20;;;13.70;63.20;;;;;;4872275;29;20851;-81
2020/12/15 13:27:18;;;;;;;10.07;8.07;;;13.70;63.20;;;;;;4862988;29;20453;-79
2020/12/15 13:29:44;;;;;;;8.50;7.33;;;13.70;63.30;;;;;;4875543;29;20456;-79
2020/12/15 13:32:11;;;;;;;10.67;7.80;;;13.80;63.50;;;;;;4881123;29;20654;-80
2020/12/15 13:34:38;;;;;;;8.77;6.70;;;13.80;63.40;;;;;;4881490;29;20881;-81
2020/12/15 13:37:07;;;;;;;8.50;7.53;;;13.90;63.60;;;;;;4866034;29;20878;-81
2020/12/15 13:39:34;;;;;;;6.30;5.73;;;13.80;63.60;;;;;;4878032;29;20468;-79
2020/12/15 13:42:00;;;;;;;5.90;5.50;;;13.90;63.80;;;;;;4869040;29;20473;-78
2020/12/15 13:44:27;;;;;;;9.17;7.00;;;13.80;64.10;;;;;;4865156;29;20473;-80
2020/12/15 13:46:53;;;;;;;8.13;7.27;;;13.80;64.30;;;;;;4872481;29;20468;-80
2020/12/15 13:49:20;;;;;;;10.00;7.10;;;13.90;64.50;;;;;;4876656;29;20462;-79
2020/12/15 13:51:48;;;;;;;7.67;6.87;;;14.00;64.60;;;;;;4876204;29;20460;-80
2020/12/15 13:54:14;;;;;;;7.73;7.03;;;14.00;64.60;;;;;;4876951;29;20493;-80
2020/12/15 13:56:41;;;;;;;7.27;6.67;;;14.20;64.70;;;;;;4861673;29;20462;-80
2020/12/15 13:59:08;;;;;;;7.60;6.77;;;14.30;64.40;;;;;;4863384;29;20532;-81
2020/12/15 14:01:35;;;;;;;6.80;6.20;;;14.30;64.10;;;;;;4880262;29;20500;-80
2020/12/15 14:04:01;;;;;;;8.10;7.30;;;14.30;64.10;;;;;;4878549;29;20473;-79
2020/12/15 14:06:28;;;;;;;6.77;6.17;;;14.20;64.20;;;;;;4877104;29;20531;-79
2020/12/15 14:08:56;;;;;;;8.47;6.43;;;14.30;64.40;;;;;;4875361;29;20499;-79
2020/12/15 14:11:22;;;;;;;9.47;6.63;;;14.30;64.40;;;;;;4879541;29;20464;-80
2020/12/15 14:13:49;;;;;;;9.30;7.30;;;14.30;64.50;;;;;;4868468;29;20473;-80
2020/12/15 14:16:15;;;;;;;8.50;5.47;;;14.30;64.50;;;;;;4866422;29;20496;-80
2020/12/15 14:18:42;;;;;;;10.90;6.50;;;14.30;64.60;;;;;;4868492;29;20820;-80
2020/12/15 14:21:09;;;;;;;8.77;6.93;;;14.20;64.70;;;;;;4861630;29;20461;-80
2020/12/15 14:23:35;;;;;;;7.93;6.90;;;14.20;65.00;;;;;;4866561;29;20983;-79
2020/12/15 14:26:09;;;;;;;7.07;6.43;;;14.10;65.20;;;;;;4873538;29;20460;-80
2020/12/15 14:28:36;;;;;;;8.10;7.30;;;14.10;65.50;;;;;;4870021;29;20465;-79
2020/12/15 14:31:13;;;;;;;7.83;6.60;;;14.00;65.70;;;;;;4861406;29;20462;-80
2020/12/15 14:33:42;;;;;;;9.70;6.20;;;14.00;66.10;;;;;;4861955;29;20469;-79
2020/12/15 14:36:09;;;;;;;8.73;6.33;;;13.90;66.20;;;;;;4862297;29;20870;-79
2020/12/15 14:38:36;;;;;;;7.23;6.07;;;13.90;66.40;;;;;;4875695;29;20978;-79
2020/12/15 14:41:02;;;;;;;6.60;5.40;;;13.90;66.60;;;;;;4963023;23;21066;-75
2020/12/15 14:43:35;;;;;;;6.90;6.20;;;13.90;66.80;;;;;;4845053;29;20470;-74
2020/12/15 14:46:02;;;;;;;5.93;5.30;;;13.90;67.10;;;;;;4843756;29;20459;-74
2020/12/15 14:48:29;;;;;;;6.53;4.93;;;13.80;67.10;;;;;;4848335;29;20528;-73
2020/12/15 14:50:58;;;;;;;8.17;6.47;;;13.80;67.30;;;;;;4860750;29;20514;-74
2020/12/15 14:53:29;;;;;;;9.30;5.53;;;13.80;67.60;;;;;;4854028;29;20462;-74
2020/12/15 14:56:02;;;;;;;7.77;6.97;;;13.80;67.80;;;;;;4860226;29;20550;-74
2020/12/15 15:01:20;;;;;;;5.53;5.03;;;13.70;68.00;;;;;;4863143;29;20859;-74
2020/12/15 15:03:49;;;;;;;6.37;5.67;;;13.70;68.30;;;;;;4858942;29;20526;-74
2020/12/15 15:06:16;;;;;;;6.43;5.83;;;13.70;68.50;;;;;;4863183;29;20465;-75
2020/12/15 15:08:42;;;;;;;7.40;5.23;;;13.70;69.40;;;;;;4860315;29;20980;-76
2020/12/15 15:11:11;;;;;;;8.47;5.77;;;13.70;68.90;;;;;;4860719;29;20450;-74
2020/12/15 15:13:38;;;;;;;8.67;5.53;;;13.70;69.00;;;;;;4861588;29;20453;-75
2020/12/15 15:16:04;;;;;;;6.63;5.20;;;13.70;69.20;;;;;;4859548;29;20500;-74
2020/12/15 15:18:32;;;;;;;9.23;4.87;;;13.70;69.40;;;;;;4859319;29;20462;-74
2020/12/15 15:20:59;;;;;;;5.53;5.00;;;13.70;69.60;;;;;;4863833;29;21022;-75
2020/12/15 15:23:27;;;;;;;6.50;5.10;;;13.70;69.80;;;;;;4860838;29;20918;-75
2020/12/15 15:25:53;;;;;;;8.53;4.93;;;13.70;70.50;;;;;;4863631;29;20509;-76
2020/12/15 15:28:20;;;;;;;5.10;4.30;;;13.70;70.00;;;;;;4859748;29;20469;-77
2020/12/15 15:30:47;;;;;;;6.73;5.67;;;13.70;70.10;;;;;;4860020;29;20464;-77
2020/12/15 15:33:13;;;;;;;6.33;4.63;;;13.70;70.30;;;;;;4860581;29;20466;-76
2020/12/15 15:35:41;;;;;;;4.43;4.03;;;13.70;70.50;;;;;;4863824;29;20588;-76
2020/12/15 15:38:07;;;;;;;5.00;4.50;;;13.70;70.80;;;;;;4859877;29;20465;-76
2020/12/15 15:40:34;;;;;;;4.57;4.20;;;13.70;71.00;;;;;;4860860;29;21399;-77
2020/12/15 15:43:00;;;;;;;6.40;4.20;;;13.70;71.20;;;;;;4862886;29;20525;-76
2020/12/15 15:45:30;;;;;;;4.40;4.00;;;13.70;71.40;;;;;;4859386;29;20469;-77
2020/12/15 15:47:57;;;;;;;5.80;4.47;;;13.70;71.70;;;;;;4859801;29;20461;-76
2020/12/15 15:50:23;;;;;;;4.07;3.67;;;13.60;72.00;;;;;;4859851;29;20466;-76
2020/12/15 15:52:51;;;;;;;5.97;3.80;;;13.60;72.40;;;;;;4863502;29;20532;-76
2020/12/15 15:55:17;;;;;;;3.73;3.43;;;13.60;72.70;;;;;;4861170;29;20501;-76
2020/12/15 15:57:44;;;;;;;7.03;3.53;;;13.50;73.10;;;;;;4861817;29;20991;-76
2020/12/15 16:00:10;;;;;;;3.37;3.07;;;13.50;73.40;;;;;;4859353;29;20466;-76
2020/12/15 16:02:39;;;;;;;4.07;3.13;;;13.50;73.80;;;;;;4862487;29;20457;-75
2020/12/15 16:05:06;;;;;;;4.30;3.60;;;13.50;74.00;;;;;;4861292;29;20954;-77
2020/12/15 16:07:32;;;;;;;3.43;3.13;;;13.50;74.40;;;;;;4862750;29;20466;-76
2020/12/15 16:10:00;;;;;;;4.03;3.17;;;13.50;74.90;;;;;;4862220;29;20454;-77
2020/12/15 16:12:26;;;;;;;5.43;3.10;;;13.50;75.20;;;;;;4860947;29;20465;-77
2020/12/15 16:14:53;;;;;;;2.57;2.37;;;13.50;75.60;;;;;;4862411;29;20497;-76
2020/12/15 16:17:19;;;;;;;3.63;3.17;;;13.50;75.90;;;;;;4860065;29;20521;-76
2020/12/15 16:19:46;;;;;;;6.90;2.70;;;13.50;76.10;;;;;;4864930;29;20461;-76
2020/12/15 16:22:12;;;;;;;2.30;2.10;;;13.50;76.40;;;;;;4859115;29;20833;-76
2020/12/15 16:24:39;;;;;;;2.20;2.03;;;13.40;76.60;;;;;;4861785;29;20462;-76
2020/12/15 16:27:07;;;;;;;3.20;2.27;;;13.40;76.80;;;;;;4859316;29;20877;-74
2020/12/15 16:29:34;;;;;;;2.70;2.50;;;13.40;77.00;;;;;;4862476;29;20462;-75
2020/12/15 16:32:00;;;;;;;2.40;2.20;;;13.40;77.20;;;;;;4859719;29;20469;-77
2020/12/15 16:34:27;;;;;;;4.80;3.00;;;13.50;77.40;;;;;;4862848;29;20549;-76
2020/12/15 16:36:55;;;;;;;2.83;2.63;;;13.50;77.50;;;;;;4860336;29;20462;-76
2020/12/15 16:39:22;;;;;;;2.83;2.63;;;13.50;77.70;;;;;;4859788;29;20476;-76
2020/12/15 16:41:51;;;;;;;5.10;3.40;;;13.40;77.80;;;;;;4860488;29;20468;-76
2020/12/15 16:44:19;;;;;;;3.00;2.70;;;13.40;77.90;;;;;;4860540;29;20486;-76
2020/12/15 16:46:50;;;;;;;4.30;2.60;;;13.40;78.10;;;;;;4858645;29;20518;-76
2020/12/15 16:49:16;;;;;;;2.87;2.67;;;13.40;78.20;;;;;;4862461;29;20509;-76
2020/12/15 16:51:45;;;;;;;4.47;2.57;;;13.40;78.30;;;;;;4854037;29;20458;-75
2020/12/15 16:54:12;;;;;;;3.97;3.27;;;13.40;78.40;;;;;;4862717;29;20457;-75
2020/12/15 16:56:38;;;;;;;4.07;3.67;;;13.40;78.50;;;;;;4862789;29;20951;-75
2020/12/15 16:59:06;;;;;;;4.83;3.20;;;13.40;78.60;;;;;;4865852;29;20491;-76
2020/12/15 17:01:34;;;;;;;3.87;3.50;;;13.40;78.70;;;;;;4862528;29;20458;-76
2020/12/15 17:04:01;;;;;;;3.80;2.60;;;13.40;78.70;;;;;;4863399;29;20461;-75
2020/12/15 17:06:27;;;;;;;3.40;2.10;;;13.40;78.90;;;;;;4862481;29;21022;-75
2020/12/15 17:08:54;;;;;;;2.90;2.37;;;13.40;78.90;;;;;;4861763;29;21052;-76
2020/12/15 17:11:23;;;;;;;6.27;3.03;;;13.40;79.10;;;;;;4862890;29;21029;-76
2020/12/15 17:13:49;;;;;;;2.53;2.00;;;13.40;79.20;;;;;;4862194;29;20496;-75
2020/12/15 17:16:16;;;;;;;3.43;2.90;;;13.40;79.30;;;;;;4862659;29;21005;-76
2020/12/15 17:18:43;;;;;;;4.73;3.23;;;13.30;79.40;;;;;;4863434;29;20965;-76
2020/12/15 17:21:12;;;;;;;4.33;2.70;;;13.30;79.50;;;;;;4862355;29;20466;-76